createdAt,value
2022-10-29T00:01:02.159Z,68.87
2022-10-29T00:03:29.414Z,68.62
2022-10-29T00:06:12.643Z,69.84
2022-10-29T00:08:41.724Z,69.39
2022-10-29T00:11:22.879Z,69.33
2022-10-29T00:14:00.922Z,69.10
2022-10-29T00:16:39.831Z,68.77
2022-10-29T00:19:07.444Z,68.96
2022-10-29T00:21:35.022Z,69.30
2022-10-29T00:24:02.304Z,69.94
2022-10-29T00:26:31.371Z,69.75
2022-10-29T00:28:58.934Z,69.74
2022-10-29T00:31:26.632Z,69.83
2022-10-29T00:33:55.612Z,69.16
2022-10-29T00:36:29.865Z,68.81
2022-10-29T00:38:57.769Z,68.76
2022-10-29T00:41:30.211Z,68.98
2022-10-29T00:44:24.762Z,68.94
2022-10-29T00:47:18.834Z,69.26
2022-10-29T00:50:12.330Z,69.25
2022-10-29T00:52:47.290Z,69.16
2022-10-29T00:55:16.342Z,69.25
2022-10-29T00:57:53.605Z,68.87
2022-10-29T01:00:22.027Z,69.04
2022-10-29T01:02:49.906Z,69.28
2022-10-29T01:05:24.026Z,69.54
2022-10-29T01:07:51.419Z,69.13
2022-10-29T01:11:23.829Z,69.58
2022-10-29T01:15:00.997Z,69.58
2022-10-29T01:18:04.276Z,69.48
2022-10-29T01:21:33.299Z,69.57
2022-10-29T01:24:47.634Z,70.32
2022-10-29T01:28:12.559Z,70.10
2022-10-29T01:31:45.762Z,69.91
2022-10-29T01:34:57.229Z,70.35
2022-10-29T01:37:54.883Z,70.47
2022-10-29T01:40:40.023Z,70.71
2022-10-29T01:46:56.379Z,70.54
2022-10-29T01:49:39.820Z,70.93
2022-10-29T01:52:13.805Z,70.87
2022-10-29T01:54:47.978Z,71.21
2022-10-29T01:57:38.846Z,71.32
2022-10-29T02:00:17.757Z,71.06
2022-10-29T02:03:45.501Z,71.77
2022-10-29T02:06:41.429Z,70.30
2022-10-29T02:09:51.641Z,71.03
2022-10-29T02:12:57.154Z,71.61
2022-10-29T02:15:48.364Z,70.99
2022-10-29T02:18:18.425Z,71.22
2022-10-29T02:20:47.144Z,71.50
2022-10-29T02:23:16.336Z,71.67
2022-10-29T02:25:43.976Z,71.38
2022-10-29T02:28:11.367Z,71.78
2022-10-29T02:30:38.806Z,71.69
2022-10-29T02:33:06.084Z,72.13
2022-10-29T02:35:33.373Z,71.38
2022-10-29T02:38:00.642Z,71.87
2022-10-29T02:40:27.907Z,71.82
2022-10-29T02:42:55.691Z,72.08
2022-10-29T02:45:23.129Z,71.73
2022-10-29T02:47:51.192Z,71.76
2022-10-29T02:50:18.483Z,71.79
2022-10-29T02:52:45.742Z,72.38
2022-10-29T02:55:13.026Z,72.16
2022-10-29T02:57:43.341Z,72.53
2022-10-29T03:00:13.093Z,72.00
2022-10-29T03:02:40.836Z,72.46
2022-10-29T03:05:09.099Z,72.91
2022-10-29T03:07:39.694Z,72.19
2022-10-29T03:10:08.463Z,72.87
2022-10-29T03:12:35.722Z,72.61
2022-10-29T03:15:03.127Z,72.06
2022-10-29T03:17:30.636Z,72.18
2022-10-29T03:19:57.886Z,72.29
2022-10-29T03:22:26.566Z,72.91
2022-10-29T03:24:53.810Z,72.13
2022-10-29T03:27:21.072Z,72.13
2022-10-29T03:29:48.425Z,72.64
2022-10-29T03:32:15.691Z,72.41
2022-10-29T03:34:42.973Z,72.72
2022-10-29T03:37:10.294Z,72.32
2022-10-29T03:39:37.627Z,72.51
2022-10-29T03:42:05.179Z,71.92
2022-10-29T03:44:32.675Z,72.04
2022-10-29T03:46:59.931Z,72.29
2022-10-29T03:49:27.188Z,71.64
2022-10-29T03:51:55.268Z,72.29
2022-10-29T03:54:22.580Z,72.29
2022-10-29T03:56:49.866Z,72.26
2022-10-29T03:59:17.935Z,72.41
2022-10-29T04:01:45.309Z,72.19
2022-10-29T04:04:12.795Z,72.52
2022-10-29T04:06:40.104Z,71.97
2022-10-29T04:09:07.459Z,71.66
2022-10-29T04:11:34.730Z,71.94
2022-10-29T04:14:01.990Z,71.81
2022-10-29T04:16:29.246Z,71.88
2022-10-29T04:18:56.543Z,71.51
2022-10-29T04:28:36.913Z,71.63
2022-10-29T04:29:48.740Z,71.84
2022-10-29T04:32:16.102Z,72.25
2022-10-29T04:34:43.361Z,72.41
2022-10-29T04:37:10.613Z,72.51
2022-10-29T04:39:37.871Z,73.22
2022-10-29T04:42:05.226Z,73.38
2022-10-29T04:44:32.513Z,73.15
2022-10-29T04:46:59.770Z,72.64
2022-10-29T04:49:27.117Z,72.93
2022-10-29T04:51:54.414Z,72.73
2022-10-29T04:54:21.703Z,73.42
2022-10-29T04:56:48.976Z,72.93
2022-10-29T04:59:16.243Z,72.51
2022-10-29T05:01:43.628Z,73.17
2022-10-29T05:04:10.967Z,73.60
2022-10-29T05:06:38.245Z,73.59
2022-10-29T05:09:05.895Z,73.96
2022-10-29T05:11:33.180Z,73.67
2022-10-29T05:14:00.457Z,73.86
2022-10-29T05:16:27.730Z,73.86
2022-10-29T05:18:54.995Z,73.58
2022-10-29T05:21:22.270Z,73.19
2022-10-29T05:23:49.523Z,73.55
2022-10-29T05:26:17.696Z,73.28
2022-10-29T05:28:44.990Z,73.26
2022-10-29T05:31:13.406Z,73.92
2022-10-29T05:33:40.723Z,73.46
2022-10-29T05:36:08.261Z,73.10
2022-10-29T05:38:35.744Z,72.98
2022-10-29T05:41:03.088Z,72.83
2022-10-29T05:43:30.544Z,72.94
2022-10-29T05:45:57.831Z,72.88
2022-10-29T05:48:25.106Z,72.99
2022-10-29T05:50:52.369Z,72.98
2022-10-29T05:53:20.441Z,73.01
2022-10-29T05:55:47.738Z,72.67
2022-10-29T05:58:15.055Z,72.45
2022-10-29T06:00:45.562Z,72.64
2022-10-29T06:03:18.833Z,72.32
2022-10-29T06:05:49.245Z,72.35
2022-10-29T06:08:18.096Z,72.11
2022-10-29T06:10:45.463Z,72.41
2022-10-29T06:13:22.170Z,72.61
2022-10-29T06:15:51.007Z,72.58
2022-10-29T06:18:18.299Z,72.73
2022-10-29T06:20:45.610Z,72.67
2022-10-29T06:23:12.997Z,72.54
2022-10-29T06:25:40.479Z,72.33
2022-10-29T06:28:15.067Z,72.09
2022-10-29T06:30:48.451Z,72.29
2022-10-29T06:33:20.449Z,72.22
2022-10-29T06:35:48.073Z,72.22
2022-10-29T06:38:15.917Z,72.37
2022-10-29T06:40:44.495Z,72.54
2022-10-29T06:43:12.873Z,72.19
2022-10-29T06:45:40.281Z,72.53
2022-10-29T06:48:08.009Z,72.08
2022-10-29T06:50:35.326Z,72.03
2022-10-29T06:53:07.406Z,72.16
2022-10-29T06:55:35.773Z,72.19
2022-10-29T06:58:18.155Z,72.16
2022-10-29T07:00:46.567Z,72.08
2022-10-29T07:03:17.506Z,71.86
2022-10-29T07:05:45.182Z,71.77
2022-10-29T07:08:13.096Z,71.52
2022-10-29T07:10:41.368Z,71.61
2022-10-29T07:13:09.514Z,71.58
2022-10-29T07:15:36.774Z,71.38
2022-10-29T07:18:09.526Z,71.26
2022-10-29T07:20:44.856Z,71.05
2022-10-29T07:23:13.623Z,70.61
2022-10-29T07:25:45.145Z,70.98
2022-10-29T07:28:24.142Z,70.68
2022-10-29T07:30:53.102Z,70.46
2022-10-29T07:33:20.396Z,70.35
2022-10-29T07:35:47.646Z,70.07
2022-10-29T07:38:14.957Z,70.01
2022-10-29T07:40:50.202Z,69.84
2022-10-29T07:43:19.885Z,69.36
2022-10-29T07:45:50.916Z,69.40
2022-10-29T07:48:20.836Z,69.16
2022-10-29T07:50:49.027Z,69.04
2022-10-29T07:53:16.558Z,68.70
2022-10-29T07:55:43.823Z,68.37
2022-10-29T07:58:12.921Z,67.75
2022-10-29T08:00:41.518Z,67.75
2022-10-29T08:03:11.877Z,67.65
2022-10-29T08:05:42.288Z,67.20
2022-10-29T08:08:11.028Z,66.87
2022-10-29T08:10:38.330Z,66.60
2022-10-29T08:13:07.128Z,66.33
2022-10-29T08:15:36.347Z,65.75
2022-10-29T08:18:16.514Z,65.51
2022-10-29T08:20:44.279Z,64.95
2022-10-29T08:23:12.781Z,64.16
2022-10-29T08:25:43.756Z,64.18
2022-10-29T08:28:15.787Z,63.72
2022-10-29T08:30:50.691Z,63.59
2022-10-29T08:33:18.612Z,63.05
2022-10-29T08:35:46.011Z,62.98
2022-10-29T08:38:13.575Z,62.60
2022-10-29T08:41:06.259Z,62.21
2022-10-29T08:43:55.351Z,61.30
2022-10-29T08:46:56.387Z,61.09
2022-10-29T08:50:16.066Z,60.75
2022-10-29T08:52:53.047Z,60.49
2022-10-29T08:55:35.738Z,59.89
2022-10-29T08:58:40.997Z,59.77
2022-10-29T09:01:12.383Z,59.16
2022-10-29T09:03:39.867Z,58.90
2022-10-29T09:07:14.709Z,58.29
2022-10-29T09:10:04.239Z,58.23
2022-10-29T09:13:35.054Z,57.51
2022-10-29T09:16:33.447Z,56.30
2022-10-29T09:19:39.480Z,55.78
2022-10-29T09:22:27.812Z,55.29
2022-10-29T09:25:38.410Z,55.00
2022-10-29T09:28:43.063Z,54.52
2022-10-29T09:31:53.599Z,54.11
2022-10-29T09:34:51.709Z,54.36
2022-10-29T09:37:53.335Z,54.07
2022-10-29T09:40:34.317Z,53.67
2022-10-29T09:43:37.694Z,53.39
2022-10-29T09:46:21.319Z,53.65
2022-10-29T09:49:10.099Z,53.29
2022-10-29T09:52:19.155Z,52.72
2022-10-29T09:54:50.138Z,51.98
2022-10-29T09:57:30.755Z,51.55
2022-10-29T10:00:17.416Z,52.73
2022-10-29T10:03:16.101Z,51.87
2022-10-29T10:06:04.667Z,50.21
2022-10-29T10:08:34.504Z,50.59
2022-10-29T10:11:08.119Z,49.82
2022-10-29T10:13:51.692Z,49.29
2022-10-29T10:16:30.155Z,48.57
2022-10-29T10:18:57.484Z,47.89
2022-10-29T10:21:32.178Z,47.72
2022-10-29T10:24:01.215Z,47.03
2022-10-29T10:26:44.981Z,46.86
2022-10-29T10:29:20.942Z,47.42
2022-10-29T10:31:55.375Z,46.31
2022-10-29T10:34:38.961Z,47.27
2022-10-29T10:37:10.834Z,45.94
2022-10-29T10:40:03.293Z,45.00
2022-10-29T10:42:39.361Z,45.20
2022-10-29T10:45:40.093Z,44.34
2022-10-29T10:48:12.775Z,44.19
2022-10-29T10:50:40.074Z,44.61
2022-10-29T10:53:21.484Z,44.09
2022-10-29T10:55:57.965Z,42.76
2022-10-29T10:58:45.079Z,42.27
2022-10-29T11:01:48.032Z,41.47
2022-10-29T11:04:32.045Z,41.90
2022-10-29T11:07:07.989Z,41.75
2022-10-29T11:09:45.504Z,40.33
2022-10-29T11:12:40.103Z,40.51
2022-10-29T11:15:39.355Z,39.85
2022-10-29T11:19:01.038Z,39.54
2022-10-29T11:22:20.464Z,39.10
2022-10-29T11:25:44.367Z,39.04
2022-10-29T11:28:50.357Z,39.22
2022-10-29T11:32:16.866Z,37.70
2022-10-29T11:35:13.084Z,37.75
2022-10-29T11:38:10.853Z,37.61
2022-10-29T11:41:45.919Z,36.24
2022-10-29T11:44:17.927Z,36.51
2022-10-29T11:47:34.948Z,36.35
2022-10-29T11:50:49.693Z,35.92
2022-10-29T11:53:45.073Z,36.25
2022-10-29T11:57:16.721Z,35.31
2022-10-29T12:00:27.374Z,35.85
2022-10-29T12:04:33.118Z,35.63
2022-10-29T12:07:39.032Z,35.60
2022-10-29T12:10:52.150Z,35.76
2022-10-29T12:14:19.031Z,35.71
2022-10-29T12:17:28.322Z,36.22
2022-10-29T12:20:54.262Z,35.65
2022-10-29T12:24:07.246Z,35.49
2022-10-29T12:27:30.039Z,35.83
2022-10-29T12:30:09.951Z,35.86
2022-10-29T12:33:48.212Z,35.34
2022-10-29T12:36:55.070Z,35.85
2022-10-29T12:39:44.951Z,36.59
2022-10-29T12:42:25.674Z,36.52
2022-10-29T12:45:27.626Z,36.86
2022-10-29T12:48:27.659Z,36.52
2022-10-29T12:51:19.866Z,37.53
2022-10-29T12:54:39.969Z,37.93
2022-10-29T12:57:13.230Z,37.75
2022-10-29T12:59:43.198Z,38.26
2022-10-29T13:02:38.132Z,38.37
2022-10-29T13:05:11.395Z,38.43
2022-10-29T13:08:04.917Z,38.62
2022-10-29T13:10:34.677Z,38.94
2022-10-29T13:13:19.980Z,38.80
2022-10-29T13:16:15.844Z,39.35
2022-10-29T13:19:35.281Z,39.09
2022-10-29T13:22:51.001Z,39.27
2022-10-29T13:25:36.511Z,39.33
2022-10-29T13:28:09.694Z,39.62
2022-10-29T13:30:43.343Z,39.76
2022-10-29T13:33:28.285Z,39.69
2022-10-29T13:36:18.043Z,40.46
2022-10-29T13:39:07.754Z,40.69
2022-10-29T13:41:56.003Z,41.13
2022-10-29T13:44:26.825Z,40.88
2022-10-29T13:47:20.254Z,41.25
2022-10-29T13:49:49.671Z,41.41
2022-10-29T13:52:24.894Z,41.26
2022-10-29T13:55:09.547Z,41.13
2022-10-29T13:58:35.703Z,41.19
2022-10-29T14:01:17.872Z,41.49
2022-10-29T14:04:24.016Z,41.53
2022-10-29T14:06:54.548Z,41.94
2022-10-29T14:09:43.769Z,42.23
2022-10-29T14:12:22.615Z,41.63
2022-10-29T14:15:10.245Z,41.81
2022-10-29T14:17:37.551Z,41.84
2022-10-29T14:20:05.560Z,41.90
2022-10-29T14:22:40.670Z,41.84
2022-10-29T14:25:35.869Z,41.79
2022-10-29T14:28:31.531Z,41.94
2022-10-29T14:31:22.827Z,42.39
2022-10-29T14:33:59.453Z,42.68
2022-10-29T14:36:44.149Z,42.90
2022-10-29T14:39:32.588Z,42.77
2022-10-29T14:42:32.767Z,44.02
2022-10-29T14:45:28.767Z,43.41
2022-10-29T14:48:08.927Z,44.15
2022-10-29T14:50:36.918Z,43.62
2022-10-29T14:53:33.758Z,45.48
2022-10-29T14:56:11.115Z,44.46
2022-10-29T14:58:40.967Z,44.62
2022-10-29T15:01:21.274Z,44.00
2022-10-29T15:03:56.041Z,44.05
2022-10-29T15:06:29.980Z,44.58
2022-10-29T15:09:03.807Z,44.70
2022-10-29T15:12:18.011Z,45.23
2022-10-29T15:14:54.011Z,45.16
2022-10-29T15:17:30.614Z,45.06
2022-10-29T15:20:06.780Z,45.74
2022-10-29T15:22:42.721Z,45.39
2022-10-29T15:25:36.759Z,45.32
2022-10-29T15:28:10.043Z,45.70
2022-10-29T15:30:38.976Z,45.62
2022-10-29T15:33:16.396Z,45.48
2022-10-29T15:35:55.109Z,45.93
2022-10-29T15:38:31.440Z,45.70
2022-10-29T15:41:39.006Z,46.02
2022-10-29T15:44:40.679Z,46.52
2022-10-29T15:47:49.362Z,46.15
2022-10-29T15:50:40.441Z,46.35
2022-10-29T15:53:16.259Z,46.86
2022-10-29T15:55:44.333Z,47.15
2022-10-29T15:58:23.351Z,47.21
2022-10-29T16:00:51.863Z,46.96
2022-10-29T16:03:27.385Z,47.14
2022-10-29T16:06:04.983Z,47.49
2022-10-29T16:08:44.383Z,47.13
2022-10-29T16:11:20.962Z,47.67
2022-10-29T16:13:55.292Z,47.57
2022-10-29T16:16:26.422Z,47.91
2022-10-29T16:18:54.540Z,48.46
2022-10-29T16:21:26.388Z,48.42
2022-10-29T16:23:54.104Z,48.85
2022-10-29T16:26:25.305Z,48.98
2022-10-29T16:28:54.050Z,48.92
2022-10-29T16:31:28.470Z,49.37
2022-10-29T16:34:00.021Z,49.08
2022-10-29T16:36:27.307Z,49.27
2022-10-29T16:38:54.583Z,49.95
2022-10-29T16:41:22.194Z,49.96
2022-10-29T16:43:49.600Z,49.80
2022-10-29T16:46:16.901Z,49.77
2022-10-29T16:48:45.566Z,49.73
2022-10-29T16:51:12.972Z,49.33
2022-10-29T16:53:40.264Z,49.39
2022-10-29T16:56:08.078Z,49.50
2022-10-29T16:58:35.336Z,49.46
2022-10-29T17:01:10.447Z,49.83
2022-10-29T17:03:39.156Z,49.50
2022-10-29T17:06:10.679Z,49.59
2022-10-29T17:08:38.680Z,50.03
2022-10-29T17:11:10.040Z,50.27
2022-10-29T17:13:38.263Z,50.81
2022-10-29T17:16:16.597Z,51.95
2022-10-29T17:18:43.917Z,52.46
2022-10-29T17:21:11.304Z,52.56
2022-10-29T17:23:39.401Z,52.47
2022-10-29T17:26:06.655Z,52.58
2022-10-29T17:28:36.557Z,52.27
2022-10-29T17:31:10.047Z,52.35
2022-10-29T17:33:37.701Z,52.62
2022-10-29T17:36:15.632Z,52.88
2022-10-29T17:38:42.912Z,52.81
2022-10-29T17:41:10.432Z,53.18
2022-10-29T17:43:37.826Z,53.00
2022-10-29T17:46:05.578Z,53.07
2022-10-29T17:48:33.936Z,53.70
2022-10-29T17:51:03.148Z,53.42
2022-10-29T17:53:31.475Z,53.80
2022-10-29T17:56:01.905Z,53.64
2022-10-29T17:58:29.138Z,54.13
2022-10-29T18:01:03.642Z,54.21
2022-10-29T18:03:30.998Z,53.66
2022-10-29T18:06:09.749Z,53.91
2022-10-29T18:08:40.310Z,53.84
2022-10-29T18:11:20.037Z,54.10
2022-10-29T18:13:50.415Z,54.15
2022-10-29T18:16:26.226Z,54.26
2022-10-29T18:19:02.780Z,54.52
2022-10-29T18:21:31.816Z,53.97
2022-10-29T18:23:59.156Z,53.88
2022-10-29T18:26:34.725Z,54.23
2022-10-29T18:29:10.433Z,54.26
2022-10-29T18:31:40.173Z,54.57
2022-10-29T18:34:07.970Z,54.62
2022-10-29T18:36:36.761Z,55.13
2022-10-29T18:39:06.500Z,55.51
2022-10-29T18:41:36.100Z,55.00
2022-10-29T18:44:07.143Z,54.96
2022-10-29T18:46:34.482Z,54.81
2022-10-29T18:49:01.888Z,54.82
2022-10-29T18:51:32.980Z,54.71
2022-10-29T18:54:00.681Z,54.94
2022-10-29T18:56:30.136Z,54.75
2022-10-29T18:58:59.278Z,55.22
2022-10-29T19:01:34.944Z,55.51
2022-10-29T19:04:08.031Z,55.61
2022-10-29T19:06:37.463Z,55.53
2022-10-29T19:09:09.303Z,56.33
2022-10-29T19:11:37.130Z,55.94
2022-10-29T19:14:11.555Z,56.35
2022-10-29T19:16:38.863Z,56.07
2022-10-29T19:19:16.136Z,55.89
2022-10-29T19:21:45.876Z,56.07
2022-10-29T19:24:16.090Z,56.23
2022-10-29T19:26:44.201Z,56.74
2022-10-29T19:29:12.172Z,56.66
2022-10-29T19:31:40.411Z,56.97
2022-10-29T19:34:08.578Z,57.16
2022-10-29T19:36:37.608Z,57.17
2022-10-29T19:39:05.540Z,57.11
2022-10-29T19:41:33.461Z,57.27
2022-10-29T19:44:02.677Z,57.72
2022-10-29T19:46:30.728Z,57.93
2022-10-29T19:48:58.700Z,57.71
2022-10-29T19:51:26.778Z,57.67
2022-10-29T19:53:55.150Z,57.45
2022-10-29T19:56:22.466Z,57.94
2022-10-29T19:58:50.084Z,57.59
2022-10-29T20:01:20.194Z,57.81
2022-10-29T20:03:47.899Z,58.70
2022-10-29T20:06:16.464Z,58.69
2022-10-29T20:08:44.048Z,58.44
2022-10-29T20:11:11.459Z,59.03
2022-10-29T20:13:40.005Z,59.35
2022-10-29T20:16:13.271Z,60.22
2022-10-29T20:18:40.560Z,60.39
2022-10-29T20:21:08.396Z,60.60
2022-10-29T20:23:36.039Z,60.70
2022-10-29T20:26:03.759Z,61.23
2022-10-29T20:28:31.018Z,61.63
2022-10-29T20:31:19.246Z,62.26
2022-10-29T20:33:58.739Z,62.59
2022-10-29T20:36:32.310Z,62.53
2022-10-29T20:39:00.296Z,62.69
2022-10-29T20:41:29.226Z,62.18
2022-10-29T20:44:01.448Z,62.12
2022-10-29T20:46:29.532Z,61.97
2022-10-29T20:48:58.498Z,62.36
2022-10-29T20:51:26.976Z,62.31
2022-10-29T20:53:55.934Z,62.05
2022-10-29T20:56:26.979Z,62.05
2022-10-29T20:58:54.963Z,62.70
2022-10-29T21:01:24.501Z,62.85
2022-10-29T21:03:52.074Z,62.61
2022-10-29T21:06:20.102Z,62.64
2022-10-29T21:08:51.730Z,62.44
2022-10-29T21:11:21.854Z,62.21
2022-10-29T21:13:50.331Z,62.33
2022-10-29T21:16:27.501Z,62.54
2022-10-29T21:19:00.882Z,63.36
2022-10-29T21:21:30.128Z,63.31
2022-10-29T21:23:58.020Z,62.90
2022-10-29T21:26:27.846Z,62.87
2022-10-29T21:28:56.075Z,63.57
2022-10-29T21:31:24.702Z,63.07
2022-10-29T21:33:55.918Z,63.01
2022-10-29T21:36:23.564Z,63.23
2022-10-29T21:38:50.950Z,63.31
2022-10-29T21:41:18.456Z,63.37
2022-10-29T21:43:45.809Z,63.41
2022-10-29T21:46:13.062Z,62.85
2022-10-29T21:48:40.408Z,63.11
2022-10-29T21:51:15.113Z,63.53
2022-10-29T21:53:42.713Z,63.05
2022-10-29T21:56:14.691Z,63.68
2022-10-29T21:58:42.925Z,63.63
2022-10-29T22:01:16.391Z,63.82
2022-10-29T22:03:47.438Z,63.37
2022-10-29T22:06:22.673Z,63.54
2022-10-29T22:08:57.484Z,63.51
2022-10-29T22:11:28.490Z,63.34
2022-10-29T22:13:56.031Z,63.20
2022-10-29T22:16:23.807Z,62.76
2022-10-29T22:18:51.198Z,63.66
2022-10-29T22:21:26.540Z,63.53
2022-10-29T22:23:57.693Z,63.76
2022-10-29T22:26:29.542Z,63.88
2022-10-29T22:28:57.294Z,63.88
2022-10-29T22:31:25.299Z,64.21
2022-10-29T22:33:54.463Z,63.92
2022-10-29T22:36:26.730Z,63.76
2022-10-29T22:39:00.138Z,64.21
2022-10-29T22:41:29.689Z,64.11
2022-10-29T22:43:59.024Z,64.01
2022-10-29T22:46:28.721Z,64.43
2022-10-29T22:48:56.691Z,64.46
2022-10-29T22:51:31.711Z,64.31
2022-10-29T22:53:59.384Z,64.85
2022-10-29T22:56:36.080Z,65.05
2022-10-29T22:59:06.458Z,65.27
2022-10-29T23:01:40.381Z,64.95
2022-10-29T23:04:11.390Z,64.66
2022-10-29T23:06:38.685Z,64.47
2022-10-29T23:09:07.343Z,64.63
2022-10-29T23:11:40.149Z,64.27
2022-10-29T23:14:07.454Z,64.92
2022-10-29T23:16:36.789Z,64.90
2022-10-29T23:19:06.617Z,65.02
2022-10-29T23:21:34.190Z,64.80
2022-10-29T23:24:01.815Z,64.89
2022-10-29T23:26:29.213Z,65.57
2022-10-29T23:28:56.942Z,65.68
2022-10-29T23:31:28.141Z,65.71
2022-10-29T23:33:58.020Z,65.72
2022-10-29T23:36:27.315Z,66.59
2022-10-29T23:39:01.247Z,66.40
2022-10-29T23:41:31.240Z,66.27
2022-10-29T23:43:59.003Z,65.76
2022-10-29T23:46:26.278Z,65.77
2022-10-29T23:48:53.706Z,66.01
2022-10-29T23:51:21.068Z,66.28
2022-10-29T23:53:53.194Z,66.20
2022-10-29T23:56:23.814Z,66.06
2022-10-29T23:58:51.079Z,65.57
